sensor_id;sensor_type;location;lat;lon;timestamp;temperature;humidity
736;DHT22;352;48.626;9.238;2023-06-04T00:01:22;17.70;89.10
736;DHT22;352;48.626;9.238;2023-06-04T00:03:49;17.70;89.10
736;DHT22;352;48.626;9.238;2023-06-04T00:06:16;17.70;89.10
736;DHT22;352;48.626;9.238;2023-06-04T00:08:42;17.60;89.00
736;DHT22;352;48.626;9.238;2023-06-04T00:11:09;17.60;89.60
736;DHT22;352;48.626;9.238;2023-06-04T00:13:36;17.60;90.10
736;DHT22;352;48.626;9.238;2023-06-04T00:16:04;17.60;89.70
736;DHT22;352;48.626;9.238;2023-06-04T00:18:32;17.50;89.80
736;DHT22;352;48.626;9.238;2023-06-04T00:20:59;17.40;89.80
736;DHT22;352;48.626;9.238;2023-06-04T00:23:26;17.40;90.70
736;DHT22;352;48.626;9.238;2023-06-04T00:25:52;17.30;90.30
736;DHT22;352;48.626;9.238;2023-06-04T00:28:19;17.30;90.70
736;DHT22;352;48.626;9.238;2023-06-04T00:30:47;17.30;90.70
736;DHT22;352;48.626;9.238;2023-06-04T00:33:13;17.30;90.70
736;DHT22;352;48.626;9.238;2023-06-04T00:35:42;17.30;90.70
736;DHT22;352;48.626;9.238;2023-06-04T00:38:08;17.20;91.10
736;DHT22;352;48.626;9.238;2023-06-04T00:40:35;17.20;91.00
736;DHT22;352;48.626;9.238;2023-06-04T00:43:02;17.20;90.90
736;DHT22;352;48.626;9.238;2023-06-04T00:45:29;17.20;91.10
736;DHT22;352;48.626;9.238;2023-06-04T00:47:56;17.10;91.40
736;DHT22;352;48.626;9.238;2023-06-04T00:50:23;17.10;91.20
736;DHT22;352;48.626;9.238;2023-06-04T00:52:52;17.10;91.30
736;DHT22;352;48.626;9.238;2023-06-04T00:55:19;17.00;91.70
736;DHT22;352;48.626;9.238;2023-06-04T00:57:46;17.00;91.50
736;DHT22;352;48.626;9.238;2023-06-04T01:00:13;17.00;91.70
736;DHT22;352;48.626;9.238;2023-06-04T01:02:41;16.90;91.70
736;DHT22;352;48.626;9.238;2023-06-04T01:05:14;16.90;91.90
736;DHT22;352;48.626;9.238;2023-06-04T01:07:44;16.80;92.10
736;DHT22;352;48.626;9.238;2023-06-04T01:10:13;16.80;92.20
736;DHT22;352;48.626;9.238;2023-06-04T01:12:41;16.70;92.10
736;DHT22;352;48.626;9.238;2023-06-04T01:15:09;16.70;92.10
736;DHT22;352;48.626;9.238;2023-06-04T01:17:39;16.70;92.10
736;DHT22;352;48.626;9.238;2023-06-04T01:20:16;16.60;92.10
736;DHT22;352;48.626;9.238;2023-06-04T01:23:03;16.60;92.30
736;DHT22;352;48.626;9.238;2023-06-04T01:25:36;16.50;92.40
736;DHT22;352;48.626;9.238;2023-06-04T01:28:05;16.50;92.80
736;DHT22;352;48.626;9.238;2023-06-04T01:30:34;16.50;92.80
736;DHT22;352;48.626;9.238;2023-06-04T01:33:02;16.50;92.90
736;DHT22;352;48.626;9.238;2023-06-04T01:35:29;16.40;92.50
736;DHT22;352;48.626;9.238;2023-06-04T01:37:57;16.40;92.80
736;DHT22;352;48.626;9.238;2023-06-04T01:40:24;16.40;92.90
736;DHT22;352;48.626;9.238;2023-06-04T01:42:53;16.30;93.00
736;DHT22;352;48.626;9.238;2023-06-04T01:45:23;16.30;92.80
736;DHT22;352;48.626;9.238;2023-06-04T01:47:50;16.20;92.80
736;DHT22;352;48.626;9.238;2023-06-04T01:50:17;16.20;92.50
736;DHT22;352;48.626;9.238;2023-06-04T01:52:44;16.20;93.10
736;DHT22;352;48.626;9.238;2023-06-04T01:55:13;16.10;93.00
736;DHT22;352;48.626;9.238;2023-06-04T01:57:40;16.10;93.10
736;DHT22;352;48.626;9.238;2023-06-04T02:00:12;16.10;93.30
736;DHT22;352;48.626;9.238;2023-06-04T02:02:40;16.10;93.40
736;DHT22;352;48.626;9.238;2023-06-04T02:05:08;16.10;93.20
736;DHT22;352;48.626;9.238;2023-06-04T02:07:35;16.10;93.20
736;DHT22;352;48.626;9.238;2023-06-04T02:10:04;16.00;93.20
736;DHT22;352;48.626;9.238;2023-06-04T02:12:31;16.00;93.30
736;DHT22;352;48.626;9.238;2023-06-04T02:14:58;16.00;93.70
736;DHT22;352;48.626;9.238;2023-06-04T02:17:26;15.90;93.30
736;DHT22;352;48.626;9.238;2023-06-04T02:19:53;15.90;93.30
736;DHT22;352;48.626;9.238;2023-06-04T02:22:22;15.80;93.60
736;DHT22;352;48.626;9.238;2023-06-04T02:24:48;15.80;93.80
736;DHT22;352;48.626;9.238;2023-06-04T02:27:15;15.80;94.00
736;DHT22;352;48.626;9.238;2023-06-04T02:29:42;15.70;93.90
736;DHT22;352;48.626;9.238;2023-06-04T02:32:09;15.70;94.10
736;DHT22;352;48.626;9.238;2023-06-04T02:34:37;15.70;94.00
736;DHT22;352;48.626;9.238;2023-06-04T02:37:05;15.70;93.80
736;DHT22;352;48.626;9.238;2023-06-04T02:39:31;15.60;93.90
736;DHT22;352;48.626;9.238;2023-06-04T02:41:58;15.60;94.00
736;DHT22;352;48.626;9.238;2023-06-04T02:44:25;15.50;94.20
736;DHT22;352;48.626;9.238;2023-06-04T02:46:52;15.50;94.20
736;DHT22;352;48.626;9.238;2023-06-04T02:49:18;15.40;94.40
736;DHT22;352;48.626;9.238;2023-06-04T02:51:47;15.40;94.50
736;DHT22;352;48.626;9.238;2023-06-04T02:54:13;15.30;94.60
736;DHT22;352;48.626;9.238;2023-06-04T02:56:40;15.30;94.50
736;DHT22;352;48.626;9.238;2023-06-04T02:59:09;15.30;94.80
736;DHT22;352;48.626;9.238;2023-06-04T03:01:38;15.20;94.70
736;DHT22;352;48.626;9.238;2023-06-04T03:04:05;15.10;94.80
736;DHT22;352;48.626;9.238;2023-06-04T03:06:36;15.10;94.80
736;DHT22;352;48.626;9.238;2023-06-04T03:09:05;15.00;95.00
736;DHT22;352;48.626;9.238;2023-06-04T03:11:35;15.00;95.10
736;DHT22;352;48.626;9.238;2023-06-04T03:14:02;15.00;95.70
736;DHT22;352;48.626;9.238;2023-06-04T03:16:30;15.00;95.30
736;DHT22;352;48.626;9.238;2023-06-04T03:18:58;15.00;95.30
736;DHT22;352;48.626;9.238;2023-06-04T03:21:25;15.00;95.30
736;DHT22;352;48.626;9.238;2023-06-04T03:23:54;15.00;95.20
736;DHT22;352;48.626;9.238;2023-06-04T03:26:22;15.00;95.20
736;DHT22;352;48.626;9.238;2023-06-04T03:28:49;15.00;95.20
736;DHT22;352;48.626;9.238;2023-06-04T03:31:16;15.00;95.20
736;DHT22;352;48.626;9.238;2023-06-04T03:33:43;15.00;95.50
736;DHT22;352;48.626;9.238;2023-06-04T03:36:10;15.00;95.40
736;DHT22;352;48.626;9.238;2023-06-04T03:38:37;14.90;95.10
736;DHT22;352;48.626;9.238;2023-06-04T03:41:04;14.80;95.20
736;DHT22;352;48.626;9.238;2023-06-04T03:43:32;14.80;95.50
736;DHT22;352;48.626;9.238;2023-06-04T03:45:59;14.80;95.50
736;DHT22;352;48.626;9.238;2023-06-04T03:48:26;14.70;95.50
736;DHT22;352;48.626;9.238;2023-06-04T03:50:53;14.80;95.60
736;DHT22;352;48.626;9.238;2023-06-04T03:53:20;14.80;95.30
736;DHT22;352;48.626;9.238;2023-06-04T03:55:46;14.70;95.50
736;DHT22;352;48.626;9.238;2023-06-04T03:58:13;14.70;95.60
736;DHT22;352;48.626;9.238;2023-06-04T04:00:41;14.70;95.70
736;DHT22;352;48.626;9.238;2023-06-04T04:03:08;14.70;95.90
736;DHT22;352;48.626;9.238;2023-06-04T04:05:35;14.70;96.10
736;DHT22;352;48.626;9.238;2023-06-04T04:08:02;14.60;96.20
736;DHT22;352;48.626;9.238;2023-06-04T04:10:29;14.70;96.60
736;DHT22;352;48.626;9.238;2023-06-04T04:12:56;14.70;96.80
736;DHT22;352;48.626;9.238;2023-06-04T04:15:23;14.70;96.70
736;DHT22;352;48.626;9.238;2023-06-04T04:17:52;14.70;96.80
736;DHT22;352;48.626;9.238;2023-06-04T04:20:19;14.80;96.70
736;DHT22;352;48.626;9.238;2023-06-04T04:22:48;14.80;96.70
736;DHT22;352;48.626;9.238;2023-06-04T04:25:15;14.90;96.60
736;DHT22;352;48.626;9.238;2023-06-04T04:27:42;14.90;96.40
736;DHT22;352;48.626;9.238;2023-06-04T04:30:11;14.90;96.30
736;DHT22;352;48.626;9.238;2023-06-04T04:32:41;15.00;96.30
736;DHT22;352;48.626;9.238;2023-06-04T04:35:15;15.00;96.30
736;DHT22;352;48.626;9.238;2023-06-04T04:37:43;15.10;96.90
736;DHT22;352;48.626;9.238;2023-06-04T04:40:10;15.10;96.30
736;DHT22;352;48.626;9.238;2023-06-04T04:42:39;15.20;96.70
736;DHT22;352;48.626;9.238;2023-06-04T04:45:08;15.20;96.60
736;DHT22;352;48.626;9.238;2023-06-04T04:47:35;15.20;96.80
736;DHT22;352;48.626;9.238;2023-06-04T04:50:02;15.20;96.60
736;DHT22;352;48.626;9.238;2023-06-04T04:52:30;15.20;96.50
736;DHT22;352;48.626;9.238;2023-06-04T04:54:57;15.30;96.60
736;DHT22;352;48.626;9.238;2023-06-04T04:57:24;15.30;96.60
736;DHT22;352;48.626;9.238;2023-06-04T04:59:50;15.40;96.30
736;DHT22;352;48.626;9.238;2023-06-04T05:02:17;15.50;96.10
736;DHT22;352;48.626;9.238;2023-06-04T05:04:44;15.60;96.00
736;DHT22;352;48.626;9.238;2023-06-04T05:07:11;15.70;96.00
736;DHT22;352;48.626;9.238;2023-06-04T05:09:40;15.70;96.50
736;DHT22;352;48.626;9.238;2023-06-04T05:12:07;15.80;96.00
736;DHT22;352;48.626;9.238;2023-06-04T05:14:34;15.90;95.70
736;DHT22;352;48.626;9.238;2023-06-04T05:17:02;16.00;94.80
736;DHT22;352;48.626;9.238;2023-06-04T05:19:31;16.20;95.00
736;DHT22;352;48.626;9.238;2023-06-04T05:21:58;16.40;94.70
736;DHT22;352;48.626;9.238;2023-06-04T05:24:26;16.50;94.10
736;DHT22;352;48.626;9.238;2023-06-04T05:26:55;16.60;92.20
736;DHT22;352;48.626;9.238;2023-06-04T05:29:22;16.90;90.60
736;DHT22;352;48.626;9.238;2023-06-04T05:31:50;17.20;90.20
736;DHT22;352;48.626;9.238;2023-06-04T05:34:17;17.40;91.20
736;DHT22;352;48.626;9.238;2023-06-04T05:36:46;17.70;92.00
736;DHT22;352;48.626;9.238;2023-06-04T05:39:14;18.10;90.00
736;DHT22;352;48.626;9.238;2023-06-04T05:41:42;18.50;87.00
736;DHT22;352;48.626;9.238;2023-06-04T05:44:12;18.80;82.40
736;DHT22;352;48.626;9.238;2023-06-04T05:46:48;19.10;78.30
736;DHT22;352;48.626;9.238;2023-06-04T05:49:15;19.50;78.20
736;DHT22;352;48.626;9.238;2023-06-04T05:51:42;19.60;74.50
736;DHT22;352;48.626;9.238;2023-06-04T05:54:16;19.90;75.70
736;DHT22;352;48.626;9.238;2023-06-04T05:56:48;20.50;71.10
736;DHT22;352;48.626;9.238;2023-06-04T05:59:24;20.40;73.90
736;DHT22;352;48.626;9.238;2023-06-04T06:01:55;20.70;70.30
736;DHT22;352;48.626;9.238;2023-06-04T06:04:29;20.70;71.80
736;DHT22;352;48.626;9.238;2023-06-04T06:07:10;21.20;69.10
736;DHT22;352;48.626;9.238;2023-06-04T06:09:41;21.30;70.40
736;DHT22;352;48.626;9.238;2023-06-04T06:12:13;21.60;68.70
736;DHT22;352;48.626;9.238;2023-06-04T06:15:02;22.00;66.40
736;DHT22;352;48.626;9.238;2023-06-04T06:17:31;21.80;67.20
736;DHT22;352;48.626;9.238;2023-06-04T06:20:00;22.30;65.80
736;DHT22;352;48.626;9.238;2023-06-04T06:25:01;22.30;66.00
736;DHT22;352;48.626;9.238;2023-06-04T06:27:28;22.60;66.00
736;DHT22;352;48.626;9.238;2023-06-04T06:32:26;22.90;63.80
736;DHT22;352;48.626;9.238;2023-06-04T06:34:54;23.00;63.50
736;DHT22;352;48.626;9.238;2023-06-04T06:37:29;23.30;63.00
736;DHT22;352;48.626;9.238;2023-06-04T06:40:33;23.40;62.80
736;DHT22;352;48.626;9.238;2023-06-04T06:43:18;23.70;62.10
736;DHT22;352;48.626;9.238;2023-06-04T06:45:50;24.10;61.00
736;DHT22;352;48.626;9.238;2023-06-04T06:48:25;24.10;61.80
736;DHT22;352;48.626;9.238;2023-06-04T06:50:57;24.20;62.10
736;DHT22;352;48.626;9.238;2023-06-04T06:53:36;24.30;60.50
736;DHT22;352;48.626;9.238;2023-06-04T06:56:14;24.40;60.90
736;DHT22;352;48.626;9.238;2023-06-04T06:58:44;24.40;59.50
736;DHT22;352;48.626;9.238;2023-06-04T07:01:21;24.60;59.10
736;DHT22;352;48.626;9.238;2023-06-04T07:04:04;24.70;59.70
736;DHT22;352;48.626;9.238;2023-06-04T07:06:48;24.50;60.50
736;DHT22;352;48.626;9.238;2023-06-04T07:09:35;24.50;60.40
736;DHT22;352;48.626;9.238;2023-06-04T07:12:10;24.50;62.40
736;DHT22;352;48.626;9.238;2023-06-04T07:14:41;24.50;60.50
736;DHT22;352;48.626;9.238;2023-06-04T07:17:23;24.90;64.00
736;DHT22;352;48.626;9.238;2023-06-04T07:20:21;25.00;59.50
736;DHT22;352;48.626;9.238;2023-06-04T07:22:58;25.20;58.90
736;DHT22;352;48.626;9.238;2023-06-04T07:25:37;25.20;59.70
736;DHT22;352;48.626;9.238;2023-06-04T07:28:16;25.40;60.50
736;DHT22;352;48.626;9.238;2023-06-04T07:31:22;25.50;59.90
736;DHT22;352;48.626;9.238;2023-06-04T07:33:59;25.50;58.10
736;DHT22;352;48.626;9.238;2023-06-04T07:37:06;25.60;59.50
736;DHT22;352;48.626;9.238;2023-06-04T07:39:52;25.90;59.70
736;DHT22;352;48.626;9.238;2023-06-04T07:42:47;26.10;57.00
736;DHT22;352;48.626;9.238;2023-06-04T07:45:56;26.30;58.00
736;DHT22;352;48.626;9.238;2023-06-04T07:51:46;27.00;56.80
736;DHT22;352;48.626;9.238;2023-06-04T07:54:24;27.40;55.40
736;DHT22;352;48.626;9.238;2023-06-04T07:56:53;27.50;55.70
736;DHT22;352;48.626;9.238;2023-06-04T07:59:25;27.50;55.30
736;DHT22;352;48.626;9.238;2023-06-04T08:01:58;27.60;55.10
736;DHT22;352;48.626;9.238;2023-06-04T08:04:30;27.80;54.40
736;DHT22;352;48.626;9.238;2023-06-04T08:07:00;28.30;54.60
736;DHT22;352;48.626;9.238;2023-06-04T08:09:39;28.40;54.10
736;DHT22;352;48.626;9.238;2023-06-04T08:12:09;28.50;53.90
736;DHT22;352;48.626;9.238;2023-06-04T08:14:40;28.40;52.80
736;DHT22;352;48.626;9.238;2023-06-04T08:17:09;28.70;53.30
736;DHT22;352;48.626;9.238;2023-06-04T08:19:48;28.80;53.40
736;DHT22;352;48.626;9.238;2023-06-04T08:22:38;28.70;54.10
736;DHT22;352;48.626;9.238;2023-06-04T08:25:22;28.80;52.20
736;DHT22;352;48.626;9.238;2023-06-04T08:28:12;28.50;52.20
736;DHT22;352;48.626;9.238;2023-06-04T08:30:48;28.60;53.10
736;DHT22;352;48.626;9.238;2023-06-04T08:33:40;28.50;54.20
736;DHT22;352;48.626;9.238;2023-06-04T08:36:20;28.80;52.80
736;DHT22;352;48.626;9.238;2023-06-04T08:38:59;29.00;53.10
736;DHT22;352;48.626;9.238;2023-06-04T08:41:52;29.20;52.70
736;DHT22;352;48.626;9.238;2023-06-04T08:45:01;29.60;51.70
736;DHT22;352;48.626;9.238;2023-06-04T08:47:38;29.60;50.40
736;DHT22;352;48.626;9.238;2023-06-04T08:50:24;29.30;50.10
736;DHT22;352;48.626;9.238;2023-06-04T08:53:24;29.20;49.60
736;DHT22;352;48.626;9.238;2023-06-04T08:55:59;29.40;50.60
736;DHT22;352;48.626;9.238;2023-06-04T08:58:57;29.40;50.40
736;DHT22;352;48.626;9.238;2023-06-04T09:01:51;29.60;50.30
736;DHT22;352;48.626;9.238;2023-06-04T09:04:33;29.90;49.60
736;DHT22;352;48.626;9.238;2023-06-04T09:07:06;30.10;49.00
736;DHT22;352;48.626;9.238;2023-06-04T09:09:50;30.30;48.10
736;DHT22;352;48.626;9.238;2023-06-04T09:12:42;30.50;48.40
736;DHT22;352;48.626;9.238;2023-06-04T09:15:34;30.70;47.00
736;DHT22;352;48.626;9.238;2023-06-04T09:18:12;30.90;47.30
736;DHT22;352;48.626;9.238;2023-06-04T09:20:59;31.10;47.20
736;DHT22;352;48.626;9.238;2023-06-04T09:23:29;31.20;46.10
736;DHT22;352;48.626;9.238;2023-06-04T09:26:20;31.30;46.00
736;DHT22;352;48.626;9.238;2023-06-04T09:29:03;31.60;44.90
736;DHT22;352;48.626;9.238;2023-06-04T09:31:46;31.70;44.90
736;DHT22;352;48.626;9.238;2023-06-04T09:34:16;31.40;44.10
736;DHT22;352;48.626;9.238;2023-06-04T09:36:58;31.20;44.90
736;DHT22;352;48.626;9.238;2023-06-04T09:39:29;31.40;45.10
736;DHT22;352;48.626;9.238;2023-06-04T09:42:10;31.40;45.50
736;DHT22;352;48.626;9.238;2023-06-04T09:45:01;31.60;44.40
736;DHT22;352;48.626;9.238;2023-06-04T09:47:40;31.60;45.00
736;DHT22;352;48.626;9.238;2023-06-04T09:50:16;31.80;44.90
736;DHT22;352;48.626;9.238;2023-06-04T09:52:57;31.60;44.30
736;DHT22;352;48.626;9.238;2023-06-04T09:55:37;31.80;44.90
736;DHT22;352;48.626;9.238;2023-06-04T09:58:17;31.70;44.50
736;DHT22;352;48.626;9.238;2023-06-04T10:00:54;32.00;45.40
736;DHT22;352;48.626;9.238;2023-06-04T10:03:30;31.90;45.00
736;DHT22;352;48.626;9.238;2023-06-04T10:06:10;31.80;44.60
736;DHT22;352;48.626;9.238;2023-06-04T10:08:45;32.00;44.60
736;DHT22;352;48.626;9.238;2023-06-04T10:11:25;31.60;44.50
736;DHT22;352;48.626;9.238;2023-06-04T10:14:00;31.10;44.00
736;DHT22;352;48.626;9.238;2023-06-04T10:16:38;31.30;45.00
736;DHT22;352;48.626;9.238;2023-06-04T10:19:11;31.70;45.20
736;DHT22;352;48.626;9.238;2023-06-04T10:21:47;31.90;44.90
736;DHT22;352;48.626;9.238;2023-06-04T10:24:20;32.00;44.60
736;DHT22;352;48.626;9.238;2023-06-04T10:26:49;31.70;44.50
736;DHT22;352;48.626;9.238;2023-06-04T10:29:21;31.80;44.80
736;DHT22;352;48.626;9.238;2023-06-04T10:32:02;31.70;44.30
736;DHT22;352;48.626;9.238;2023-06-04T10:34:36;32.00;44.10
736;DHT22;352;48.626;9.238;2023-06-04T10:37:21;32.10;43.90
736;DHT22;352;48.626;9.238;2023-06-04T10:39:59;31.80;43.00
736;DHT22;352;48.626;9.238;2023-06-04T10:42:38;31.70;44.00
736;DHT22;352;48.626;9.238;2023-06-04T10:45:18;31.70;44.30
736;DHT22;352;48.626;9.238;2023-06-04T10:48:04;31.70;45.00
736;DHT22;352;48.626;9.238;2023-06-04T10:50:47;32.00;44.80
736;DHT22;352;48.626;9.238;2023-06-04T10:53:14;32.20;44.50
736;DHT22;352;48.626;9.238;2023-06-04T10:55:43;32.10;44.40
736;DHT22;352;48.626;9.238;2023-06-04T10:58:11;32.10;42.90
736;DHT22;352;48.626;9.238;2023-06-04T11:00:46;32.20;43.80
736;DHT22;352;48.626;9.238;2023-06-04T11:03:15;32.10;44.10
736;DHT22;352;48.626;9.238;2023-06-04T11:05:47;32.10;43.40
736;DHT22;352;48.626;9.238;2023-06-04T11:08:26;31.70;43.10
736;DHT22;352;48.626;9.238;2023-06-04T11:10:55;31.40;43.30
736;DHT22;352;48.626;9.238;2023-06-04T11:13:23;31.30;44.00
736;DHT22;352;48.626;9.238;2023-06-04T11:15:51;31.00;44.10
736;DHT22;352;48.626;9.238;2023-06-04T11:18:20;30.60;44.90
736;DHT22;352;48.626;9.238;2023-06-04T11:20:58;30.40;44.30
736;DHT22;352;48.626;9.238;2023-06-04T11:23:25;30.70;46.50
736;DHT22;352;48.626;9.238;2023-06-04T11:25:52;30.90;45.20
736;DHT22;352;48.626;9.238;2023-06-04T11:28:20;31.00;44.90
736;DHT22;352;48.626;9.238;2023-06-04T11:30:56;30.80;44.50
736;DHT22;352;48.626;9.238;2023-06-04T11:33:23;30.70;44.20
736;DHT22;352;48.626;9.238;2023-06-04T11:35:51;30.60;45.00
736;DHT22;352;48.626;9.238;2023-06-04T11:38:18;30.40;45.10
736;DHT22;352;48.626;9.238;2023-06-04T11:40:55;30.20;45.10
736;DHT22;352;48.626;9.238;2023-06-04T11:43:23;30.20;45.70
736;DHT22;352;48.626;9.238;2023-06-04T11:45:50;30.30;45.80
736;DHT22;352;48.626;9.238;2023-06-04T11:48:22;30.50;45.70
736;DHT22;352;48.626;9.238;2023-06-04T11:50:50;30.80;44.90
736;DHT22;352;48.626;9.238;2023-06-04T11:53:17;30.70;45.20
736;DHT22;352;48.626;9.238;2023-06-04T11:55:44;30.40;45.00
736;DHT22;352;48.626;9.238;2023-06-04T11:58:11;30.10;44.80
736;DHT22;352;48.626;9.238;2023-06-04T12:00:39;29.90;45.10
736;DHT22;352;48.626;9.238;2023-06-04T12:03:06;29.90;45.00
736;DHT22;352;48.626;9.238;2023-06-04T12:05:33;30.10;45.50
736;DHT22;352;48.626;9.238;2023-06-04T12:08:09;30.20;46.40
736;DHT22;352;48.626;9.238;2023-06-04T12:10:37;30.00;46.10
736;DHT22;352;48.626;9.238;2023-06-04T12:13:05;29.60;47.00
736;DHT22;352;48.626;9.238;2023-06-04T12:15:32;29.60;47.80
736;DHT22;352;48.626;9.238;2023-06-04T12:17:59;29.50;46.10
736;DHT22;352;48.626;9.238;2023-06-04T12:20:36;29.50;47.10
736;DHT22;352;48.626;9.238;2023-06-04T12:23:03;29.40;47.50
736;DHT22;352;48.626;9.238;2023-06-04T12:25:33;29.30;46.30
736;DHT22;352;48.626;9.238;2023-06-04T12:28:00;29.30;45.80
736;DHT22;352;48.626;9.238;2023-06-04T12:30:36;29.40;46.00
736;DHT22;352;48.626;9.238;2023-06-04T12:33:03;29.30;44.90
736;DHT22;352;48.626;9.238;2023-06-04T12:35:30;29.20;46.60
736;DHT22;352;48.626;9.238;2023-06-04T12:37:56;29.10;46.00
736;DHT22;352;48.626;9.238;2023-06-04T12:40:23;28.80;45.70
736;DHT22;352;48.626;9.238;2023-06-04T12:42:52;28.50;46.00
736;DHT22;352;48.626;9.238;2023-06-04T12:45:19;28.60;46.80
736;DHT22;352;48.626;9.238;2023-06-04T12:47:45;28.50;45.10
736;DHT22;352;48.626;9.238;2023-06-04T12:50:13;28.50;45.10
736;DHT22;352;48.626;9.238;2023-06-04T12:52:40;28.40;46.00
736;DHT22;352;48.626;9.238;2023-06-04T12:55:07;28.30;45.30
736;DHT22;352;48.626;9.238;2023-06-04T12:57:34;28.20;46.10
736;DHT22;352;48.626;9.238;2023-06-04T13:00:03;28.00;44.70
736;DHT22;352;48.626;9.238;2023-06-04T13:02:30;27.80;45.10
736;DHT22;352;48.626;9.238;2023-06-04T13:04:57;27.60;44.80
736;DHT22;352;48.626;9.238;2023-06-04T13:07:24;27.60;46.00
736;DHT22;352;48.626;9.238;2023-06-04T13:09:50;27.60;46.90
736;DHT22;352;48.626;9.238;2023-06-04T13:12:17;27.60;46.20
736;DHT22;352;48.626;9.238;2023-06-04T13:14:44;27.30;45.50
736;DHT22;352;48.626;9.238;2023-06-04T13:17:12;27.40;46.30
736;DHT22;352;48.626;9.238;2023-06-04T13:19:40;27.50;47.70
736;DHT22;352;48.626;9.238;2023-06-04T13:22:07;27.60;45.90
736;DHT22;352;48.626;9.238;2023-06-04T13:24:35;27.60;46.30
736;DHT22;352;48.626;9.238;2023-06-04T13:27:02;27.70;46.50
736;DHT22;352;48.626;9.238;2023-06-04T13:29:28;27.60;45.70
736;DHT22;352;48.626;9.238;2023-06-04T13:31:59;27.60;47.00
736;DHT22;352;48.626;9.238;2023-06-04T13:34:27;27.80;46.40
736;DHT22;352;48.626;9.238;2023-06-04T13:36:54;27.70;44.50
736;DHT22;352;48.626;9.238;2023-06-04T13:39:21;27.60;45.30
736;DHT22;352;48.626;9.238;2023-06-04T13:41:48;27.60;45.90
736;DHT22;352;48.626;9.238;2023-06-04T13:44:15;27.60;45.90
736;DHT22;352;48.626;9.238;2023-06-04T13:46:41;27.60;46.30
736;DHT22;352;48.626;9.238;2023-06-04T13:49:08;27.60;44.80
736;DHT22;352;48.626;9.238;2023-06-04T13:51:36;27.60;46.10
736;DHT22;352;48.626;9.238;2023-06-04T13:54:03;27.60;45.10
736;DHT22;352;48.626;9.238;2023-06-04T13:56:30;27.50;45.20
736;DHT22;352;48.626;9.238;2023-06-04T13:58:57;27.40;45.80
736;DHT22;352;48.626;9.238;2023-06-04T14:01:24;27.40;45.60
736;DHT22;352;48.626;9.238;2023-06-04T14:03:50;27.40;45.50
736;DHT22;352;48.626;9.238;2023-06-04T14:06:17;27.40;46.10
736;DHT22;352;48.626;9.238;2023-06-04T14:08:46;27.40;45.30
736;DHT22;352;48.626;9.238;2023-06-04T14:11:12;27.30;44.90
736;DHT22;352;48.626;9.238;2023-06-04T14:13:39;27.30;45.50
736;DHT22;352;48.626;9.238;2023-06-04T14:16:07;27.30;44.90
736;DHT22;352;48.626;9.238;2023-06-04T14:18:34;27.30;46.40
736;DHT22;352;48.626;9.238;2023-06-04T14:21:00;27.20;45.50
736;DHT22;352;48.626;9.238;2023-06-04T14:23:27;27.20;45.00
736;DHT22;352;48.626;9.238;2023-06-04T14:25:56;27.10;45.40
736;DHT22;352;48.626;9.238;2023-06-04T14:28:22;27.20;46.90
736;DHT22;352;48.626;9.238;2023-06-04T14:30:50;27.10;45.20
736;DHT22;352;48.626;9.238;2023-06-04T14:33:17;27.10;44.70
736;DHT22;352;48.626;9.238;2023-06-04T14:35:43;27.10;46.00
736;DHT22;352;48.626;9.238;2023-06-04T14:38:12;27.00;45.90
736;DHT22;352;48.626;9.238;2023-06-04T14:40:39;27.00;44.60
736;DHT22;352;48.626;9.238;2023-06-04T14:43:08;27.00;45.70
736;DHT22;352;48.626;9.238;2023-06-04T14:45:35;27.00;46.60
736;DHT22;352;48.626;9.238;2023-06-04T14:48:03;26.90;45.40
736;DHT22;352;48.626;9.238;2023-06-04T14:50:30;26.70;45.20
736;DHT22;352;48.626;9.238;2023-06-04T14:52:57;26.60;45.80
736;DHT22;352;48.626;9.238;2023-06-04T14:55:24;26.50;46.80
736;DHT22;352;48.626;9.238;2023-06-04T14:57:51;26.40;47.30
736;DHT22;352;48.626;9.238;2023-06-04T15:00:19;26.50;46.60
736;DHT22;352;48.626;9.238;2023-06-04T15:02:46;26.50;45.30
736;DHT22;352;48.626;9.238;2023-06-04T15:05:12;26.30;45.90
736;DHT22;352;48.626;9.238;2023-06-04T15:07:39;26.40;46.40
736;DHT22;352;48.626;9.238;2023-06-04T15:10:07;26.50;47.60
736;DHT22;352;48.626;9.238;2023-06-04T15:12:34;26.50;46.20
736;DHT22;352;48.626;9.238;2023-06-04T15:15:04;26.50;46.40
736;DHT22;352;48.626;9.238;2023-06-04T15:17:32;26.50;45.70
736;DHT22;352;48.626;9.238;2023-06-04T15:19:59;26.50;44.50
736;DHT22;352;48.626;9.238;2023-06-04T15:22:26;26.50;46.50
736;DHT22;352;48.626;9.238;2023-06-04T15:24:53;26.50;45.80
736;DHT22;352;48.626;9.238;2023-06-04T15:27:20;26.50;45.50
736;DHT22;352;48.626;9.238;2023-06-04T15:29:46;26.40;46.00
736;DHT22;352;48.626;9.238;2023-06-04T15:32:13;26.40;46.10
736;DHT22;352;48.626;9.238;2023-06-04T15:34:41;26.30;46.40
736;DHT22;352;48.626;9.238;2023-06-04T15:37:08;26.30;45.50
736;DHT22;352;48.626;9.238;2023-06-04T15:39:35;26.30;46.80
736;DHT22;352;48.626;9.238;2023-06-04T15:42:02;26.30;46.40
736;DHT22;352;48.626;9.238;2023-06-04T15:44:29;26.20;46.10
736;DHT22;352;48.626;9.238;2023-06-04T15:46:57;26.30;45.60
736;DHT22;352;48.626;9.238;2023-06-04T15:49:23;26.20;45.00
736;DHT22;352;48.626;9.238;2023-06-04T15:51:51;26.10;44.90
736;DHT22;352;48.626;9.238;2023-06-04T15:54:18;26.10;45.00
736;DHT22;352;48.626;9.238;2023-06-04T15:56:45;26.10;45.40
736;DHT22;352;48.626;9.238;2023-06-04T15:59:12;26.00;45.00
736;DHT22;352;48.626;9.238;2023-06-04T16:01:39;25.90;45.20
736;DHT22;352;48.626;9.238;2023-06-04T16:04:08;25.90;46.30
736;DHT22;352;48.626;9.238;2023-06-04T16:06:34;25.90;46.40
736;DHT22;352;48.626;9.238;2023-06-04T16:09:04;25.90;45.30
736;DHT22;352;48.626;9.238;2023-06-04T16:11:31;25.90;46.00
736;DHT22;352;48.626;9.238;2023-06-04T16:14:00;25.90;46.00
736;DHT22;352;48.626;9.238;2023-06-04T16:16:27;25.90;45.40
736;DHT22;352;48.626;9.238;2023-06-04T16:18:54;25.90;45.20
736;DHT22;352;48.626;9.238;2023-06-04T16:21:21;26.00;45.40
736;DHT22;352;48.626;9.238;2023-06-04T16:23:48;25.90;45.40
736;DHT22;352;48.626;9.238;2023-06-04T16:26:16;25.90;46.00
736;DHT22;352;48.626;9.238;2023-06-04T16:28:43;25.90;46.90
736;DHT22;352;48.626;9.238;2023-06-04T16:31:10;25.80;47.10
736;DHT22;352;48.626;9.238;2023-06-04T16:33:37;25.80;46.50
736;DHT22;352;48.626;9.238;2023-06-04T16:36:04;25.70;45.80
736;DHT22;352;48.626;9.238;2023-06-04T16:38:31;25.70;45.70
736;DHT22;352;48.626;9.238;2023-06-04T16:40:58;25.70;45.40
736;DHT22;352;48.626;9.238;2023-06-04T16:43:26;25.60;46.10
736;DHT22;352;48.626;9.238;2023-06-04T16:45:53;25.70;46.30
736;DHT22;352;48.626;9.238;2023-06-04T16:48:20;25.60;46.30
736;DHT22;352;48.626;9.238;2023-06-04T16:50:48;25.50;46.20
736;DHT22;352;48.626;9.238;2023-06-04T16:53:15;25.50;47.00
736;DHT22;352;48.626;9.238;2023-06-04T16:55:42;25.40;45.80
736;DHT22;352;48.626;9.238;2023-06-04T16:58:09;25.40;46.70
736;DHT22;352;48.626;9.238;2023-06-04T17:00:37;25.30;46.70
736;DHT22;352;48.626;9.238;2023-06-04T17:03:05;25.40;46.90
736;DHT22;352;48.626;9.238;2023-06-04T17:05:31;25.40;47.40
736;DHT22;352;48.626;9.238;2023-06-04T17:07:58;25.40;47.30